Terminal Aerodrome Forecast
Issued by NWS Topeka, KS

Home | Current Version | Previous Version | Text Only | Print | Product List | Glossary Off
Versions: 1 2 3 4 5 6 7 8 9 10 11 12 13 14 15 16 17 18 19

705
FTUS43 KTOP 111050 AAB
TAFTOP
TAF AMD
KTOP 111050Z 1111/1206 01006KT P6SM SCT030 SCT130
     FM111245 04007KT P6SM BKN009
     FM111400 05007KT P6SM BKN014
     FM111800 09006KT P6SM BKN023
     FM112000 14006KT P6SM FEW025 BKN150=

USA.gov is the U.S. government's official web portal to all federal, state and local government web resources and services.